createdAt,value
2023-05-19T00:00:59.400Z,1016.98
2023-05-19T00:01:59.440Z,1016.93
2023-05-19T00:02:38.416Z,1016.96
2023-05-19T00:03:38.335Z,1016.94
2023-05-19T00:04:38.262Z,1016.94
2023-05-19T00:05:59.282Z,1016.94
2023-05-19T00:06:59.202Z,1016.93
2023-05-19T00:07:38.169Z,1016.95
2023-05-19T00:08:38.125Z,1016.95
2023-05-19T00:09:38.094Z,1016.98
2023-05-19T00:10:59.053Z,1016.98
2023-05-19T00:11:59.048Z,1016.95
2023-05-19T00:12:37.988Z,1016.98
2023-05-19T00:13:37.953Z,1016.96
2023-05-19T00:14:37.929Z,1016.95
2023-05-19T00:15:58.944Z,1016.98
2023-05-19T00:16:58.851Z,1016.98
2023-05-19T00:17:37.910Z,1016.97
2023-05-19T00:18:37.853Z,1017.01
2023-05-19T00:19:37.743Z,1016.96
2023-05-19T00:20:58.704Z,1016.98
2023-05-19T00:21:58.664Z,1017.01
2023-05-19T00:22:37.640Z,1016.97
2023-05-19T00:23:37.612Z,1016.96
2023-05-19T00:24:37.569Z,1017.00
2023-05-19T00:25:58.549Z,1016.94
2023-05-19T00:26:58.501Z,1016.96
2023-05-19T00:27:37.464Z,1016.97
2023-05-19T00:28:37.430Z,1017.01
2023-05-19T00:29:37.393Z,1017.01
2023-05-19T00:30:58.357Z,1017.02
2023-05-19T00:31:58.343Z,1017.02
2023-05-19T00:32:37.303Z,1016.97
2023-05-19T00:33:37.251Z,1017.01
2023-05-19T00:34:37.225Z,1017.00
2023-05-19T00:35:58.184Z,1016.98
2023-05-19T00:36:58.167Z,1016.96
2023-05-19T00:37:37.107Z,1017.02
2023-05-19T00:38:37.098Z,1016.97
2023-05-19T00:39:37.052Z,1016.97
2023-05-19T00:40:58.004Z,1016.99
2023-05-19T00:41:57.972Z,1016.97
2023-05-19T00:42:36.941Z,1016.97
2023-05-19T00:43:36.916Z,1017.00
2023-05-19T00:44:36.872Z,1017.02
2023-05-19T00:45:57.830Z,1016.98
2023-05-19T00:46:57.878Z,1017.02
2023-05-19T00:47:36.821Z,1016.99
2023-05-19T00:48:36.738Z,1016.99
2023-05-19T00:49:36.693Z,1016.97
2023-05-19T00:50:57.659Z,1017.00
2023-05-19T00:51:57.621Z,1016.98
2023-05-19T00:52:36.588Z,1016.93
2023-05-19T00:53:36.554Z,1016.96
2023-05-19T00:54:36.524Z,1016.94
2023-05-19T00:55:57.498Z,1016.98
2023-05-19T00:56:57.450Z,1016.97
2023-05-19T00:57:36.422Z,1016.98
2023-05-19T00:58:36.382Z,1016.94
2023-05-19T00:59:36.340Z,1016.99
2023-05-19T01:00:57.356Z,1016.96
2023-05-19T01:01:57.272Z,1016.94
2023-05-19T01:02:36.309Z,1016.94
2023-05-19T01:03:36.346Z,1016.96
2023-05-19T01:04:36.175Z,1016.94
2023-05-19T01:05:57.140Z,1016.96
2023-05-19T01:06:57.098Z,1016.96
2023-05-19T01:07:36.067Z,1016.95
2023-05-19T01:08:36.026Z,1016.96
2023-05-19T01:09:35.991Z,1016.94
2023-05-19T01:10:56.968Z,1016.93
2023-05-19T01:11:56.917Z,1016.92
2023-05-19T01:12:35.880Z,1016.88
2023-05-19T01:13:35.855Z,1016.89
2023-05-19T01:14:35.824Z,1016.90
2023-05-19T01:15:56.806Z,1016.87
2023-05-19T01:16:56.823Z,1016.88
2023-05-19T01:17:35.749Z,1016.86
2023-05-19T01:18:35.692Z,1016.83
2023-05-19T01:19:35.646Z,1016.83
2023-05-19T01:20:56.622Z,1016.82
2023-05-19T01:21:56.566Z,1016.83
2023-05-19T01:22:35.545Z,1016.82
2023-05-19T01:23:35.510Z,1016.80
2023-05-19T01:24:35.464Z,1016.78
2023-05-19T01:25:56.426Z,1016.77
2023-05-19T01:26:56.393Z,1016.78
2023-05-19T01:27:35.360Z,1016.78
2023-05-19T01:28:35.327Z,1016.77
2023-05-19T01:29:35.285Z,1016.75
2023-05-19T01:30:56.257Z,1016.78
2023-05-19T01:31:56.236Z,1016.74
2023-05-19T01:32:35.201Z,1016.73
2023-05-19T01:33:35.164Z,1016.75
2023-05-19T01:34:35.113Z,1016.70
2023-05-19T01:35:56.081Z,1016.76
2023-05-19T01:36:56.048Z,1016.74
2023-05-19T01:37:35.006Z,1016.73
2023-05-19T01:38:34.972Z,1016.72
2023-05-19T01:39:34.937Z,1016.71
2023-05-19T01:40:55.901Z,1016.69
2023-05-19T01:41:55.866Z,1016.71
2023-05-19T01:42:34.837Z,1016.73
2023-05-19T01:43:34.794Z,1016.71
2023-05-19T01:44:34.763Z,1016.71
2023-05-19T01:45:55.791Z,1016.72
2023-05-19T01:46:55.707Z,1016.73
2023-05-19T01:47:34.666Z,1016.69
2023-05-19T01:48:34.619Z,1016.72
2023-05-19T01:49:34.595Z,1016.75
2023-05-19T01:50:55.547Z,1016.73
2023-05-19T01:51:55.527Z,1016.74
2023-05-19T01:52:34.491Z,1016.74
2023-05-19T01:53:34.463Z,1016.74
2023-05-19T01:54:34.406Z,1016.73
2023-05-19T01:55:55.389Z,1016.71
2023-05-19T01:56:55.343Z,1016.71
2023-05-19T01:57:34.308Z,1016.73
2023-05-19T01:58:34.269Z,1016.75
2023-05-19T01:59:34.251Z,1016.73
2023-05-19T02:00:55.203Z,1016.74
2023-05-19T02:01:55.160Z,1016.74
2023-05-19T02:02:34.171Z,1016.77
2023-05-19T02:03:34.089Z,1016.76
2023-05-19T02:04:34.110Z,1016.74
2023-05-19T02:05:55.010Z,1016.77
2023-05-19T02:06:54.979Z,1016.78
2023-05-19T02:07:33.964Z,1016.76
2023-05-19T02:08:33.920Z,1016.80
2023-05-19T02:09:33.873Z,1016.80
2023-05-19T02:10:54.835Z,1016.80
2023-05-19T02:11:54.798Z,1016.81
2023-05-19T02:12:33.767Z,1016.83
2023-05-19T02:13:33.734Z,1016.82
2023-05-19T02:14:33.693Z,1016.81
2023-05-19T02:15:54.684Z,1016.82
2023-05-19T02:16:54.624Z,1016.86
2023-05-19T02:17:33.628Z,1016.80
2023-05-19T02:18:33.551Z,1016.81
2023-05-19T02:19:33.520Z,1016.84
2023-05-19T02:20:54.471Z,1016.81
2023-05-19T02:21:54.441Z,1016.79
2023-05-19T02:22:33.421Z,1016.81
2023-05-19T02:23:33.375Z,1016.85
2023-05-19T02:24:33.343Z,1016.79
2023-05-19T02:25:54.300Z,1016.79
2023-05-19T02:26:54.271Z,1016.81
2023-05-19T02:27:33.231Z,1016.80
2023-05-19T02:28:33.195Z,1016.81
2023-05-19T02:29:33.154Z,1016.79
2023-05-19T02:30:54.116Z,1016.79
2023-05-19T02:31:54.123Z,1016.79
2023-05-19T02:32:33.250Z,1016.77
2023-05-19T02:33:33.019Z,1016.78
2023-05-19T02:34:32.985Z,1016.78
2023-05-19T02:35:53.951Z,1016.79
2023-05-19T02:36:53.934Z,1016.77
2023-05-19T02:37:32.890Z,1016.76
2023-05-19T02:38:32.852Z,1016.76
2023-05-19T02:39:32.802Z,1016.73
2023-05-19T02:40:53.760Z,1016.71
2023-05-19T02:41:53.726Z,1016.68
2023-05-19T02:42:32.697Z,1016.71
2023-05-19T02:43:32.661Z,1016.69
2023-05-19T02:44:32.629Z,1016.65
2023-05-19T02:45:53.610Z,1016.64
2023-05-19T02:46:53.593Z,1016.63
2023-05-19T02:47:34.108Z,1016.65
2023-05-19T02:48:32.477Z,1016.64
2023-05-19T02:49:32.446Z,1016.63
2023-05-19T02:50:53.429Z,1016.58
2023-05-19T02:51:53.364Z,1016.62
2023-05-19T02:52:32.336Z,1016.60
2023-05-19T02:53:32.311Z,1016.58
2023-05-19T02:54:32.260Z,1016.57
2023-05-19T02:55:53.231Z,1016.54
2023-05-19T02:56:53.182Z,1016.53
2023-05-19T02:57:32.154Z,1016.55
2023-05-19T02:58:32.129Z,1016.55
2023-05-19T02:59:32.086Z,1016.54
2023-05-19T03:00:53.041Z,1016.55
2023-05-19T03:01:53.095Z,1016.54
2023-05-19T03:02:32.046Z,1016.53
2023-05-19T03:03:31.983Z,1016.56
2023-05-19T03:04:31.903Z,1016.55
2023-05-19T03:05:52.876Z,1016.52
2023-05-19T03:06:52.831Z,1016.53
2023-05-19T03:07:31.806Z,1016.49
2023-05-19T03:08:31.764Z,1016.49
2023-05-19T03:09:31.720Z,1016.50
2023-05-19T03:10:52.680Z,1016.48
2023-05-19T03:11:52.651Z,1016.57
2023-05-19T03:12:31.627Z,1016.52
2023-05-19T03:13:31.579Z,1016.54
2023-05-19T03:14:31.548Z,1016.57
2023-05-19T03:15:52.526Z,1016.55
2023-05-19T03:16:52.800Z,1016.59
2023-05-19T03:17:31.532Z,1016.57
2023-05-19T03:18:31.402Z,1016.62
2023-05-19T03:19:31.363Z,1016.59
2023-05-19T03:20:52.335Z,1016.61
2023-05-19T03:21:52.294Z,1016.60
2023-05-19T03:22:31.270Z,1016.66
2023-05-19T03:23:31.224Z,1016.63
2023-05-19T03:24:31.194Z,1016.68
2023-05-19T03:25:52.156Z,1016.65
2023-05-19T03:26:52.111Z,1016.70
2023-05-19T03:27:31.152Z,1016.69
2023-05-19T03:28:31.061Z,1016.67
2023-05-19T03:29:31.018Z,1016.72
2023-05-19T03:30:51.971Z,1016.67
2023-05-19T03:31:51.939Z,1016.68
2023-05-19T03:32:30.965Z,1016.65
2023-05-19T03:33:31.089Z,1016.64
2023-05-19T03:34:30.836Z,1016.67
2023-05-19T03:35:51.797Z,1016.65
2023-05-19T03:36:51.758Z,1016.66
2023-05-19T03:37:30.720Z,1016.65
2023-05-19T03:38:30.688Z,1016.62
2023-05-19T03:39:30.647Z,1016.61
2023-05-19T03:40:51.612Z,1016.58
2023-05-19T03:41:51.586Z,1016.59
2023-05-19T03:42:30.598Z,1016.58
2023-05-19T03:43:30.508Z,1016.56
2023-05-19T03:44:30.474Z,1016.60
2023-05-19T03:45:51.458Z,1016.57
2023-05-19T03:46:51.393Z,1016.55
2023-05-19T03:47:30.374Z,1016.60
2023-05-19T03:48:30.330Z,1016.57
2023-05-19T03:49:30.291Z,1016.59
2023-05-19T03:50:51.253Z,1016.54
2023-05-19T03:51:51.218Z,1016.56
2023-05-19T03:52:30.188Z,1016.56
2023-05-19T03:53:30.161Z,1016.58
2023-05-19T03:54:30.107Z,1016.60
2023-05-19T03:55:51.094Z,1016.61
2023-05-19T03:56:51.036Z,1016.59
2023-05-19T03:57:30.003Z,1016.59
2023-05-19T03:58:29.961Z,1016.62
2023-05-19T03:59:29.931Z,1016.60
2023-05-19T04:00:50.892Z,1016.58
2023-05-19T04:01:50.941Z,1016.60
2023-05-19T04:02:29.869Z,1016.61
2023-05-19T04:03:29.796Z,1016.61
2023-05-19T04:04:29.782Z,1016.60
2023-05-19T04:05:50.709Z,1016.60
2023-05-19T04:06:50.668Z,1016.61
2023-05-19T04:07:29.634Z,1016.63
2023-05-19T04:08:29.603Z,1016.62
2023-05-19T04:09:29.561Z,1016.64
2023-05-19T04:10:50.537Z,1016.62
2023-05-19T04:11:50.500Z,1016.61
2023-05-19T04:12:29.456Z,1016.65
2023-05-19T04:13:29.423Z,1016.61
2023-05-19T04:14:29.394Z,1016.64
2023-05-19T04:15:50.403Z,1016.62
2023-05-19T04:16:50.306Z,1016.62
2023-05-19T04:17:29.309Z,1016.59
2023-05-19T04:18:29.523Z,1016.59
2023-05-19T04:19:29.236Z,1016.60
2023-05-19T04:20:50.171Z,1016.60
2023-05-19T04:21:50.133Z,1016.60
2023-05-19T04:22:29.089Z,1016.66
2023-05-19T04:23:29.059Z,1016.63
2023-05-19T04:24:29.020Z,1016.65
2023-05-19T04:25:49.984Z,1016.71
2023-05-19T04:26:49.962Z,1016.70
2023-05-19T04:27:28.922Z,1016.69
2023-05-19T04:28:28.869Z,1016.71
2023-05-19T04:29:28.844Z,1016.70
2023-05-19T04:30:49.822Z,1016.69
2023-05-19T04:31:49.770Z,1016.71
2023-05-19T04:32:28.788Z,1016.71
2023-05-19T04:33:28.694Z,1016.71
2023-05-19T04:34:28.686Z,1016.67
2023-05-19T04:35:49.619Z,1016.71
2023-05-19T04:36:51.726Z,1016.72
2023-05-19T04:37:28.555Z,1016.69
2023-05-19T04:38:28.523Z,1016.73
2023-05-19T04:39:28.482Z,1016.74
2023-05-19T04:40:49.437Z,1016.73
2023-05-19T04:41:49.399Z,1016.74
2023-05-19T04:42:28.374Z,1016.73
2023-05-19T04:43:28.344Z,1016.70
2023-05-19T04:44:28.289Z,1016.72
2023-05-19T04:45:49.261Z,1016.73
2023-05-19T04:46:49.268Z,1016.74
2023-05-19T04:47:28.390Z,1016.71
2023-05-19T04:48:28.146Z,1016.72
2023-05-19T04:49:28.124Z,1016.74
2023-05-19T04:50:49.103Z,1016.75
2023-05-19T04:51:49.046Z,1016.70
2023-05-19T04:52:28.015Z,1016.74
2023-05-19T04:53:27.984Z,1016.75
2023-05-19T04:54:27.930Z,1016.77
2023-05-19T04:55:48.896Z,1016.74
2023-05-19T04:56:48.855Z,1016.73
2023-05-19T04:57:27.830Z,1016.75
2023-05-19T04:58:27.788Z,1016.76
2023-05-19T04:59:27.763Z,1016.76
2023-05-19T05:00:48.709Z,1016.74
2023-05-19T05:01:48.714Z,1016.71
2023-05-19T05:02:27.664Z,1016.74
2023-05-19T05:03:27.679Z,1016.70
2023-05-19T05:04:27.564Z,1016.67
2023-05-19T05:05:48.532Z,1016.74
2023-05-19T05:06:48.495Z,1016.68
2023-05-19T05:07:27.460Z,1016.69
2023-05-19T05:08:27.419Z,1016.69
2023-05-19T05:09:27.415Z,1016.69
2023-05-19T05:10:48.347Z,1016.72
2023-05-19T05:11:48.314Z,1016.71
2023-05-19T05:12:27.283Z,1016.75
2023-05-19T05:13:27.242Z,1016.70
2023-05-19T05:14:27.215Z,1016.74
2023-05-19T05:15:48.173Z,1016.73
2023-05-19T05:16:48.166Z,1016.74
2023-05-19T05:17:27.131Z,1016.75
2023-05-19T05:18:27.057Z,1016.75
2023-05-19T05:19:27.281Z,1016.70
2023-05-19T05:20:47.986Z,1016.73
2023-05-19T05:21:47.969Z,1016.75
2023-05-19T05:22:26.912Z,1016.74
2023-05-19T05:23:26.883Z,1016.80
2023-05-19T05:24:26.838Z,1016.78
2023-05-19T05:25:47.800Z,1016.78
2023-05-19T05:26:47.765Z,1016.78
2023-05-19T05:27:26.735Z,1016.79
2023-05-19T05:28:26.727Z,1016.79
2023-05-19T05:29:26.666Z,1016.79
2023-05-19T05:30:47.632Z,1016.74
2023-05-19T05:31:47.588Z,1016.77
2023-05-19T05:32:26.661Z,1016.76
2023-05-19T05:33:26.666Z,1016.78
2023-05-19T05:34:26.476Z,1016.78
2023-05-19T05:35:47.449Z,1016.78
2023-05-19T05:36:47.419Z,1016.76
2023-05-19T05:37:26.377Z,1016.77
2023-05-19T05:38:26.363Z,1016.77
2023-05-19T05:39:26.311Z,1016.75
2023-05-19T05:40:47.263Z,1016.77
2023-05-19T05:41:47.226Z,1016.76
2023-05-19T05:42:27.600Z,1016.80
2023-05-19T05:43:26.160Z,1016.74
2023-05-19T05:44:26.122Z,1016.76
2023-05-19T05:45:47.096Z,1016.77
2023-05-19T05:46:47.053Z,1016.79
2023-05-19T05:47:26.060Z,1016.78
2023-05-19T05:48:26.000Z,1016.79
2023-05-19T05:49:25.948Z,1016.74
2023-05-19T05:50:46.918Z,1016.77
2023-05-19T05:52:01.563Z,1016.73
2023-05-19T05:52:25.843Z,1016.73
2023-05-19T05:53:25.815Z,1016.73
2023-05-19T05:54:25.774Z,1016.72
2023-05-19T05:55:46.730Z,1016.72
2023-05-19T05:56:46.694Z,1016.65
2023-05-19T05:57:25.684Z,1016.67
2023-05-19T05:58:25.632Z,1016.67
2023-05-19T05:59:25.595Z,1016.66
2023-05-19T06:00:46.552Z,1016.68
2023-05-19T06:01:46.528Z,1016.68
2023-05-19T06:02:25.559Z,1016.71
2023-05-19T06:03:25.508Z,1016.72
2023-05-19T06:04:25.419Z,1016.70
2023-05-19T06:05:46.415Z,1016.71
2023-05-19T06:06:46.349Z,1016.72
2023-05-19T06:07:25.340Z,1016.67
2023-05-19T06:08:25.270Z,1016.69
2023-05-19T06:09:25.239Z,1016.68
2023-05-19T06:10:47.374Z,1016.68
2023-05-19T06:11:46.168Z,1016.63
2023-05-19T06:12:25.137Z,1016.65
2023-05-19T06:13:25.161Z,1016.66
2023-05-19T06:14:25.073Z,1016.61
2023-05-19T06:15:46.058Z,1016.65
2023-05-19T06:16:45.989Z,1016.65
2023-05-19T06:17:24.976Z,1016.65
2023-05-19T06:18:24.935Z,1016.66
2023-05-19T06:19:25.032Z,1016.64
2023-05-19T06:20:45.850Z,1016.63
2023-05-19T06:21:45.815Z,1016.62
2023-05-19T06:22:24.790Z,1016.67
2023-05-19T06:23:24.752Z,1016.59
2023-05-19T06:24:24.711Z,1016.64
2023-05-19T06:25:45.675Z,1016.63
2023-05-19T06:26:45.654Z,1016.62
2023-05-19T06:27:24.610Z,1016.62
2023-05-19T06:28:24.575Z,1016.62
2023-05-19T06:29:24.538Z,1016.62
2023-05-19T06:30:45.496Z,1016.61
2023-05-19T06:31:45.498Z,1016.63
2023-05-19T06:32:24.482Z,1016.60
2023-05-19T06:33:25.548Z,1016.58
2023-05-19T06:34:24.371Z,1016.62
2023-05-19T06:35:45.323Z,1016.61
2023-05-19T06:36:45.309Z,1016.61
2023-05-19T06:37:24.261Z,1016.62
2023-05-19T06:38:24.227Z,1016.64
2023-05-19T06:39:24.201Z,1016.65
2023-05-19T06:40:45.155Z,1016.64
2023-05-19T06:41:45.108Z,1016.57
2023-05-19T06:42:24.111Z,1016.63
2023-05-19T06:43:24.054Z,1016.61
2023-05-19T06:44:24.026Z,1016.62
2023-05-19T06:45:44.971Z,1016.61
2023-05-19T06:46:44.971Z,1016.60
2023-05-19T06:47:23.942Z,1016.60
2023-05-19T06:48:23.867Z,1016.62
2023-05-19T06:49:23.866Z,1016.63
2023-05-19T06:50:44.799Z,1016.64
2023-05-19T06:51:44.779Z,1016.63
2023-05-19T06:52:23.751Z,1016.66
2023-05-19T06:53:23.704Z,1016.63
2023-05-19T06:54:23.667Z,1016.62
2023-05-19T06:55:58.062Z,1016.62
2023-05-19T06:56:44.591Z,1016.62
2023-05-19T06:57:23.568Z,1016.61
2023-05-19T06:58:23.534Z,1016.67
2023-05-19T06:59:23.501Z,1016.64
2023-05-19T07:00:44.455Z,1016.63
2023-05-19T07:01:44.531Z,1016.63
2023-05-19T07:02:23.392Z,1016.62
2023-05-19T07:03:23.437Z,1016.66
2023-05-19T07:04:23.326Z,1016.66
2023-05-19T07:05:44.284Z,1016.67
2023-05-19T07:06:44.257Z,1016.68
2023-05-19T07:07:23.218Z,1016.70
2023-05-19T07:08:23.201Z,1016.72
2023-05-19T07:09:23.146Z,1016.61
2023-05-19T07:10:44.116Z,1016.66
2023-05-19T07:11:44.135Z,1016.69
2023-05-19T07:12:23.045Z,1016.65
2023-05-19T07:13:24.375Z,1016.64
2023-05-19T07:14:22.988Z,1016.69
2023-05-19T07:15:43.950Z,1016.63
2023-05-19T07:16:43.950Z,1016.66
2023-05-19T07:17:22.923Z,1016.63
2023-05-19T07:18:22.844Z,1016.64
2023-05-19T07:19:22.944Z,1016.67
2023-05-19T07:20:43.772Z,1016.66
2023-05-19T07:21:43.736Z,1016.65
2023-05-19T07:22:22.705Z,1016.65
2023-05-19T07:23:22.670Z,1016.65
2023-05-19T07:24:22.646Z,1016.66
2023-05-19T07:25:43.597Z,1016.71
2023-05-19T07:26:43.567Z,1016.65
2023-05-19T07:27:22.547Z,1016.69
2023-05-19T07:28:22.526Z,1016.70
2023-05-19T07:29:22.468Z,1016.65
2023-05-19T07:30:43.434Z,1016.63
2023-05-19T07:31:43.439Z,1016.67
2023-05-19T07:32:22.493Z,1016.68
2023-05-19T07:33:22.329Z,1016.66
2023-05-19T07:34:22.300Z,1016.71
2023-05-19T07:35:43.262Z,1016.71
2023-05-19T07:36:43.227Z,1016.69
2023-05-19T07:37:22.209Z,1016.66
2023-05-19T07:38:22.166Z,1016.66
2023-05-19T07:39:22.180Z,1016.61
2023-05-19T07:40:43.090Z,1016.62
2023-05-19T07:41:43.087Z,1016.65
2023-05-19T07:42:22.044Z,1016.67
2023-05-19T07:43:22.035Z,1016.64
2023-05-19T07:44:21.985Z,1016.62
2023-05-19T07:45:42.985Z,1016.60
2023-05-19T07:46:42.904Z,1016.60
2023-05-19T07:47:21.856Z,1016.63
2023-05-19T07:48:21.823Z,1016.59
2023-05-19T07:49:21.789Z,1016.59
2023-05-19T07:50:42.756Z,1016.57
2023-05-19T07:51:42.733Z,1016.59
2023-05-19T07:52:21.684Z,1016.60
2023-05-19T07:53:21.649Z,1016.56
2023-05-19T07:54:21.617Z,1016.51
2023-05-19T07:55:42.585Z,1016.52
2023-05-19T07:56:42.551Z,1016.52
2023-05-19T07:57:21.523Z,1016.55
2023-05-19T07:58:21.488Z,1016.53
2023-05-19T07:59:21.478Z,1016.52
2023-05-19T08:00:42.415Z,1016.50
2023-05-19T08:01:42.389Z,1016.51
2023-05-19T08:02:21.369Z,1016.48
2023-05-19T08:03:21.432Z,1016.48
2023-05-19T08:04:21.348Z,1016.46
2023-05-19T08:05:42.251Z,1016.43
2023-05-19T08:06:42.216Z,1016.42
2023-05-19T08:07:21.186Z,1016.43
2023-05-19T08:08:21.162Z,1016.38
2023-05-19T08:09:21.113Z,1016.37
2023-05-19T08:10:42.083Z,1016.37
2023-05-19T08:11:42.055Z,1016.36
2023-05-19T08:12:21.018Z,1016.38
2023-05-19T08:13:20.983Z,1016.38
2023-05-19T08:14:20.957Z,1016.39
2023-05-19T08:15:42.013Z,1016.43
2023-05-19T08:16:41.902Z,1016.46
2023-05-19T08:17:20.861Z,1016.41
2023-05-19T08:18:20.840Z,1016.47
2023-05-19T08:19:20.972Z,1016.45
2023-05-19T08:20:41.754Z,1016.42
2023-05-19T08:21:41.722Z,1016.46
2023-05-19T08:22:20.698Z,1016.43
2023-05-19T08:23:20.669Z,1016.45
2023-05-19T08:24:20.627Z,1016.40
2023-05-19T08:25:41.589Z,1016.41
2023-05-19T08:26:41.565Z,1016.36
2023-05-19T08:27:20.556Z,1016.37
2023-05-19T08:28:20.507Z,1016.31
2023-05-19T08:29:20.461Z,1016.32
2023-05-19T08:30:41.426Z,1016.33
2023-05-19T08:31:41.541Z,1016.34
2023-05-19T08:32:20.392Z,1016.31
2023-05-19T08:33:20.336Z,1016.27
2023-05-19T08:34:20.301Z,1016.32
2023-05-19T08:35:41.294Z,1016.34
2023-05-19T08:36:41.228Z,1016.32
2023-05-19T08:37:20.197Z,1016.30
2023-05-19T08:38:20.172Z,1016.29
2023-05-19T08:39:20.132Z,1016.29
2023-05-19T08:40:41.145Z,1016.29
2023-05-19T08:41:41.091Z,1016.27
2023-05-19T08:42:20.051Z,1016.26
2023-05-19T08:43:20.038Z,1016.23
2023-05-19T08:44:19.979Z,1016.24
2023-05-19T08:45:40.986Z,1016.26
2023-05-19T08:46:40.931Z,1016.25
2023-05-19T08:47:19.901Z,1016.22
2023-05-19T08:48:19.836Z,1016.19
2023-05-19T08:49:19.804Z,1016.22
2023-05-19T08:50:40.777Z,1016.22
2023-05-19T08:51:40.739Z,1016.24
2023-05-19T08:52:19.711Z,1016.25
2023-05-19T08:53:32.321Z,1016.24
2023-05-19T08:54:19.644Z,1016.21
2023-05-19T08:55:40.602Z,1016.24
2023-05-19T08:56:40.577Z,1016.23
2023-05-19T08:57:19.555Z,1016.25
2023-05-19T08:58:19.512Z,1016.25
2023-05-19T08:59:19.479Z,1016.25
2023-05-19T09:00:40.472Z,1016.24
2023-05-19T09:01:40.452Z,1016.19
2023-05-19T09:02:19.393Z,1016.20
2023-05-19T09:03:23.760Z,1016.20
2023-05-19T09:04:19.379Z,1016.21
2023-05-19T09:05:40.382Z,1016.19
2023-05-19T09:06:40.251Z,1016.19
2023-05-19T09:07:19.226Z,1016.15
2023-05-19T09:08:19.196Z,1016.15
2023-05-19T09:09:19.164Z,1016.13
2023-05-19T09:10:40.141Z,1016.11
2023-05-19T09:11:40.093Z,1016.17
2023-05-19T09:12:19.083Z,1016.08
2023-05-19T09:13:19.076Z,1016.11
2023-05-19T09:14:19.002Z,1016.10
2023-05-19T09:15:39.972Z,1016.06
2023-05-19T09:16:39.978Z,1016.05
2023-05-19T09:17:18.927Z,1016.08
2023-05-19T09:18:18.875Z,1016.04
2023-05-19T09:19:18.870Z,1016.07
2023-05-19T09:20:39.833Z,1016.02
2023-05-19T09:21:39.769Z,1016.04
2023-05-19T09:22:18.748Z,1016.04
2023-05-19T09:23:18.705Z,1015.96
2023-05-19T09:24:18.679Z,1015.98
2023-05-19T09:25:39.639Z,1015.95
2023-05-19T09:26:39.623Z,1015.98
2023-05-19T09:27:18.576Z,1015.91
2023-05-19T09:28:18.547Z,1015.89
2023-05-19T09:29:18.519Z,1015.90
2023-05-19T09:30:39.484Z,1015.91
2023-05-19T09:31:39.513Z,1015.88
2023-05-19T09:32:18.466Z,1015.86
2023-05-19T09:33:18.429Z,1015.88
2023-05-19T09:34:18.361Z,1015.88
2023-05-19T09:35:39.422Z,1015.88
2023-05-19T09:36:39.297Z,1015.88
2023-05-19T09:37:18.270Z,1015.88
2023-05-19T09:38:18.230Z,1015.87
2023-05-19T09:39:18.202Z,1015.86
2023-05-19T09:40:39.168Z,1015.85
2023-05-19T09:41:39.134Z,1015.84
2023-05-19T09:42:18.097Z,1015.80
2023-05-19T09:43:18.086Z,1015.81
2023-05-19T09:44:18.047Z,1015.81
2023-05-19T09:45:39.002Z,1015.78
2023-05-19T09:46:39.006Z,1015.82
2023-05-19T09:47:17.951Z,1015.79
2023-05-19T09:48:17.906Z,1015.82
2023-05-19T09:49:17.877Z,1015.83
2023-05-19T09:50:38.856Z,1015.81
2023-05-19T09:51:38.811Z,1015.81
2023-05-19T09:52:17.793Z,1015.78
2023-05-19T09:53:17.769Z,1015.80
2023-05-19T09:54:17.717Z,1015.80
2023-05-19T09:55:38.683Z,1015.79
2023-05-19T09:56:38.660Z,1015.84
2023-05-19T09:57:17.631Z,1015.82
2023-05-19T09:58:17.598Z,1015.77
2023-05-19T09:59:17.560Z,1015.75
2023-05-19T10:00:38.533Z,1015.76
2023-05-19T10:01:38.566Z,1015.75
2023-05-19T10:02:17.473Z,1015.77
2023-05-19T10:03:17.441Z,1015.72
2023-05-19T10:04:17.405Z,1015.72
2023-05-19T10:05:38.375Z,1015.73
2023-05-19T10:06:38.336Z,1015.71
2023-05-19T10:07:17.318Z,1015.71
2023-05-19T10:08:17.277Z,1015.68
2023-05-19T10:09:17.254Z,1015.68
2023-05-19T10:10:38.227Z,1015.64
2023-05-19T10:11:38.178Z,1015.66
2023-05-19T10:12:17.312Z,1015.64
2023-05-19T10:13:17.122Z,1015.63
2023-05-19T10:14:17.086Z,1015.61
2023-05-19T10:15:53.696Z,1015.66
2023-05-19T10:16:38.056Z,1015.68
2023-05-19T10:17:16.994Z,1015.64
2023-05-19T10:18:16.968Z,1015.63
2023-05-19T10:19:16.945Z,1015.63
2023-05-19T10:20:37.908Z,1015.64
2023-05-19T10:21:37.912Z,1015.62
2023-05-19T10:22:16.840Z,1015.56
2023-05-19T10:23:16.879Z,1015.59
2023-05-19T10:24:16.780Z,1015.63
2023-05-19T10:25:37.746Z,1015.61
2023-05-19T10:26:37.732Z,1015.59
2023-05-19T10:27:16.683Z,1015.55
2023-05-19T10:28:16.660Z,1015.55
2023-05-19T10:29:16.635Z,1015.60
2023-05-19T10:30:37.591Z,1015.61
2023-05-19T10:31:37.571Z,1015.52
2023-05-19T10:32:16.593Z,1015.52
2023-05-19T10:33:16.576Z,1015.47
2023-05-19T10:34:16.473Z,1015.46
2023-05-19T10:35:37.829Z,1015.49
2023-05-19T10:36:37.408Z,1015.49
2023-05-19T10:37:16.372Z,1015.51
2023-05-19T10:38:16.365Z,1015.54
2023-05-19T10:39:16.344Z,1015.52
2023-05-19T10:40:37.295Z,1015.57
2023-05-19T10:41:37.279Z,1015.53
2023-05-19T10:42:16.232Z,1015.51
2023-05-19T10:43:16.206Z,1015.59
2023-05-19T10:44:16.176Z,1015.56
2023-05-19T10:45:37.158Z,1015.57
2023-05-19T10:46:37.142Z,1015.59
2023-05-19T10:47:16.184Z,1015.58
2023-05-19T10:48:16.107Z,1015.57
2023-05-19T10:49:16.030Z,1015.55
2023-05-19T10:50:37.014Z,1015.55
2023-05-19T10:51:36.977Z,1015.54
2023-05-19T10:52:15.940Z,1015.51
2023-05-19T10:53:15.922Z,1015.53
2023-05-19T10:54:15.895Z,1015.52
2023-05-19T10:55:36.930Z,1015.46
2023-05-19T10:56:36.866Z,1015.44
2023-05-19T10:57:15.810Z,1015.44
2023-05-19T10:58:15.790Z,1015.42
2023-05-19T10:59:15.812Z,1015.47
2023-05-19T11:00:36.755Z,1015.44
2023-05-19T11:01:36.746Z,1015.45
2023-05-19T11:02:16.156Z,1015.40
2023-05-19T11:03:15.705Z,1015.35
2023-05-19T11:04:15.614Z,1015.34
2023-05-19T11:05:36.589Z,1015.37
2023-05-19T11:06:36.550Z,1015.36
2023-05-19T11:07:15.529Z,1015.39
2023-05-19T11:08:15.497Z,1015.36
2023-05-19T11:09:15.474Z,1015.38
2023-05-19T11:10:36.448Z,1015.35
2023-05-19T11:11:36.429Z,1015.33
2023-05-19T11:12:15.394Z,1015.34
2023-05-19T11:13:15.357Z,1015.36
2023-05-19T11:14:15.326Z,1015.37
2023-05-19T11:15:36.307Z,1015.40
2023-05-19T11:16:36.368Z,1015.42
2023-05-19T11:17:15.244Z,1015.39
2023-05-19T11:21:52.403Z,1015.41
2023-05-19T11:26:53.492Z,1015.37
2023-05-19T11:26:54.055Z,1015.31
2023-05-19T11:28:15.021Z,1015.29
2023-05-19T11:29:15.002Z,1015.27
2023-05-19T11:30:15.045Z,1015.23
2023-05-19T11:30:53.966Z,1015.24
2023-05-19T11:32:15.089Z,1015.21
2023-05-19T11:33:14.995Z,1015.21
2023-05-19T11:34:14.887Z,1015.20
2023-05-19T11:34:53.972Z,1015.17
2023-05-19T11:36:14.845Z,1015.23
2023-05-19T11:37:14.800Z,1015.24
2023-05-19T11:38:14.790Z,1015.25
2023-05-19T11:38:53.748Z,1015.21
2023-05-19T11:40:14.731Z,1015.19
2023-05-19T11:41:14.695Z,1015.20
2023-05-19T11:42:14.713Z,1015.18
2023-05-19T11:42:53.694Z,1015.23
2023-05-19T11:44:14.636Z,1015.14
2023-05-19T11:45:14.602Z,1015.26
2023-05-19T11:46:14.593Z,1015.25
2023-05-19T11:46:53.669Z,1015.24
2023-05-19T11:48:14.525Z,1015.25
2023-05-19T11:49:14.469Z,1015.21
2023-05-19T11:50:14.465Z,1015.20
2023-05-19T11:50:53.459Z,1015.20
2023-05-19T11:52:14.428Z,1015.20
2023-05-19T11:53:14.381Z,1015.16
2023-05-19T11:54:14.375Z,1015.15
2023-05-19T11:54:53.325Z,1015.15
2023-05-19T11:56:14.336Z,1015.14
2023-05-19T11:57:14.311Z,1015.12
2023-05-19T11:58:14.262Z,1015.09
2023-05-19T11:58:53.260Z,1015.06
2023-05-19T12:00:14.225Z,1015.06
2023-05-19T12:01:14.179Z,1015.03
2023-05-19T12:02:14.303Z,1015.05
2023-05-19T12:02:53.174Z,1015.03
2023-05-19T12:04:14.151Z,1015.03
2023-05-19T12:05:14.146Z,1015.04
2023-05-19T12:06:14.181Z,1015.04
2023-05-19T12:06:53.040Z,1015.01
2023-05-19T12:08:14.026Z,1014.97
2023-05-19T12:09:14.018Z,1014.99
2023-05-19T12:10:13.990Z,1014.95
2023-05-19T12:10:52.970Z,1014.96
2023-05-19T12:12:13.913Z,1014.96